Wheatland, Iowa
Current Conditions -  °F | °C
As of 8:52 PM on Friday 28 Nov 2014 (Local Time) from KDVN Reporting Station
Clear Clear  
Wind Chill: 24°   Ceiling: Unl
Heat Index: 32°   Visibility: 8mi
Dew Point: 28°   Wind: 10mph
Humidity: 85%   Direction: 120°ESE
Pressure: 29.84"   Gusts: NA
Location:  41.83°N, 90.84°W
Report Text: KDVN 290252Z AUTO 12009KT 8SM CLR 00/M02 A2984 RMK AO2 SLP113 T00001022 56010 FZRANO
Loading
Personal Weather Stations






























Interactive Weather Map New forecast layout! Learn more

10-Day Weather Forecast

Advertisements
Track Severe Weather on mobile